sensor_id;sensor_type;location;lat;lon;timestamp;pressure;altitude;pressure_sealevel;temperature;humidity
19005;BME280;9635;52.078;8.648;2023-01-31T00:01:09;101002.00;;;2.22;81.27
19005;BME280;9635;52.078;8.648;2023-01-31T00:06:16;100989.81;;;2.42;80.16
19005;BME280;9635;52.078;8.648;2023-01-31T00:11:20;101005.22;;;2.30;79.71
19005;BME280;9635;52.078;8.648;2023-01-31T00:16:24;100997.38;;;2.76;79.15
19005;BME280;9635;52.078;8.648;2023-01-31T00:21:29;101013.13;;;2.57;79.74
19005;BME280;9635;52.078;8.648;2023-01-31T00:26:33;101014.25;;;3.19;78.59
19005;BME280;9635;52.078;8.648;2023-01-31T00:31:37;100997.94;;;3.06;79.19
19005;BME280;9635;52.078;8.648;2023-01-31T00:36:42;101003.38;;;3.03;78.71
19005;BME280;9635;52.078;8.648;2023-01-31T00:41:44;100990.13;;;3.03;78.96
19005;BME280;9635;52.078;8.648;2023-01-31T00:46:47;100998.03;;;3.04;79.63
19005;BME280;9635;52.078;8.648;2023-01-31T00:51:51;101003.38;;;3.03;79.78
19005;BME280;9635;52.078;8.648;2023-01-31T00:56:54;101008.38;;;2.65;81.66
19005;BME280;9635;52.078;8.648;2023-01-31T01:01:57;101002.66;;;2.99;79.73
19005;BME280;9635;52.078;8.648;2023-01-31T01:07:01;101015.50;;;3.10;79.15
19005;BME280;9635;52.078;8.648;2023-01-31T01:12:07;101016.66;;;3.03;79.10
19005;BME280;9635;52.078;8.648;2023-01-31T01:17:09;101011.44;;;2.78;79.33
19005;BME280;9635;52.078;8.648;2023-01-31T01:22:13;101016.84;;;2.51;81.05
19005;BME280;9635;52.078;8.648;2023-01-31T01:27:16;101032.41;;;3.08;78.31
19005;BME280;9635;52.078;8.648;2023-01-31T01:32:19;101010.00;;;2.69;80.88
19005;BME280;9635;52.078;8.648;2023-01-31T01:37:24;101018.59;;;2.76;79.56
19005;BME280;9635;52.078;8.648;2023-01-31T01:42:26;101027.78;;;2.67;79.65
19005;BME280;9635;52.078;8.648;2023-01-31T01:47:37;101032.31;;;2.38;81.02
19005;BME280;9635;52.078;8.648;2023-01-31T01:52:45;101032.63;;;2.56;80.05
19005;BME280;9635;52.078;8.648;2023-01-31T01:57:53;101033.19;;;2.64;80.04
19005;BME280;9635;52.078;8.648;2023-01-31T02:03:03;101043.53;;;2.72;79.09
19005;BME280;9635;52.078;8.648;2023-01-31T02:08:08;101031.81;;;2.54;80.02
19005;BME280;9635;52.078;8.648;2023-01-31T02:13:12;101048.59;;;2.29;80.49
19005;BME280;9635;52.078;8.648;2023-01-31T02:18:18;101062.03;;;2.97;77.92
19005;BME280;9635;52.078;8.648;2023-01-31T02:23:43;101067.69;;;2.64;78.31
19005;BME280;9635;52.078;8.648;2023-01-31T02:34:34;101054.22;;;2.69;78.08
19005;BME280;9635;52.078;8.648;2023-01-31T02:39:44;101072.41;;;2.31;79.42
19005;BME280;9635;52.078;8.648;2023-01-31T02:44:54;101067.91;;;2.58;77.84
19005;BME280;9635;52.078;8.648;2023-01-31T02:50:10;101070.84;;;2.49;78.42
19005;BME280;9635;52.078;8.648;2023-01-31T02:55:20;101086.81;;;2.22;78.91
19005;BME280;9635;52.078;8.648;2023-01-31T03:00:44;101071.69;;;2.01;79.87
19005;BME280;9635;52.078;8.648;2023-01-31T03:11:42;101077.28;;;1.91;79.76
19005;BME280;9635;52.078;8.648;2023-01-31T03:16:51;101068.13;;;1.75;80.32
19005;BME280;9635;52.078;8.648;2023-01-31T03:29:04;101056.31;;;1.59;80.45
19005;BME280;9635;52.078;8.648;2023-01-31T03:34:11;101043.91;;;1.86;79.94
19005;BME280;9635;52.078;8.648;2023-01-31T03:39:28;101034.88;;;1.91;79.76
19005;BME280;9635;52.078;8.648;2023-01-31T03:44:41;101029.81;;;1.85;80.21
19005;BME280;9635;52.078;8.648;2023-01-31T03:49:47;101025.41;;;1.59;80.91
19005;BME280;9635;52.078;8.648;2023-01-31T03:54:54;101020.03;;;1.34;82.08
19005;BME280;9635;52.078;8.648;2023-01-31T04:00:02;101015.69;;;1.60;80.83
19005;BME280;9635;52.078;8.648;2023-01-31T04:05:17;101028.69;;;1.13;82.75
19005;BME280;9635;52.078;8.648;2023-01-31T04:10:27;101010.31;;;1.61;80.74
19005;BME280;9635;52.078;8.648;2023-01-31T04:15:31;101006.81;;;1.61;80.85
19005;BME280;9635;52.078;8.648;2023-01-31T04:20:33;101006.94;;;1.56;81.02
19005;BME280;9635;52.078;8.648;2023-01-31T04:25:36;101006.59;;;1.67;80.97
19005;BME280;9635;52.078;8.648;2023-01-31T04:30:40;101006.06;;;1.57;81.59
19005;BME280;9635;52.078;8.648;2023-01-31T04:35:43;101005.84;;;1.63;81.39
19005;BME280;9635;52.078;8.648;2023-01-31T04:40:46;101003.16;;;1.38;82.01
19005;BME280;9635;52.078;8.648;2023-01-31T04:45:50;101002.38;;;1.61;81.07
19005;BME280;9635;52.078;8.648;2023-01-31T04:50:53;100989.91;;;1.65;80.64
19005;BME280;9635;52.078;8.648;2023-01-31T04:55:55;100998.72;;;1.65;80.92
19005;BME280;9635;52.078;8.648;2023-01-31T05:00:59;101006.81;;;1.61;80.41
19005;BME280;9635;52.078;8.648;2023-01-31T05:06:02;100988.75;;;1.72;80.95
19005;BME280;9635;52.078;8.648;2023-01-31T05:11:07;100984.81;;;2.09;79.02
19005;BME280;9635;52.078;8.648;2023-01-31T05:16:11;100986.41;;;1.89;79.91
19005;BME280;9635;52.078;8.648;2023-01-31T05:21:14;100978.97;;;1.99;78.92
19005;BME280;9635;52.078;8.648;2023-01-31T05:26:16;100955.84;;;2.04;79.10
19005;BME280;9635;52.078;8.648;2023-01-31T05:31:21;100945.78;;;2.14;78.66
19005;BME280;9635;52.078;8.648;2023-01-31T05:36:23;100941.00;;;2.22;77.97
19005;BME280;9635;52.078;8.648;2023-01-31T05:41:26;100939.44;;;2.42;77.50
19005;BME280;9635;52.078;8.648;2023-01-31T05:46:30;100942.97;;;2.40;77.24
19005;BME280;9635;52.078;8.648;2023-01-31T05:51:33;100940.28;;;2.42;77.41
19005;BME280;9635;52.078;8.648;2023-01-31T05:56:36;100935.56;;;2.50;77.55
19005;BME280;9635;52.078;8.648;2023-01-31T06:01:40;100933.31;;;2.39;77.71
19005;BME280;9635;52.078;8.648;2023-01-31T06:06:43;100927.34;;;2.58;77.61
19005;BME280;9635;52.078;8.648;2023-01-31T06:11:46;100929.50;;;2.70;77.64
19005;BME280;9635;52.078;8.648;2023-01-31T06:16:50;100927.56;;;2.74;77.72
19005;BME280;9635;52.078;8.648;2023-01-31T06:21:53;100926.66;;;2.75;77.17
19005;BME280;9635;52.078;8.648;2023-01-31T06:26:55;100919.88;;;2.90;77.05
19005;BME280;9635;52.078;8.648;2023-01-31T06:32:00;100916.88;;;3.19;76.25
19005;BME280;9635;52.078;8.648;2023-01-31T06:37:02;100912.88;;;3.09;75.88
19005;BME280;9635;52.078;8.648;2023-01-31T06:42:05;100920.41;;;3.20;76.05
19005;BME280;9635;52.078;8.648;2023-01-31T06:47:10;100922.34;;;2.94;76.88
19005;BME280;9635;52.078;8.648;2023-01-31T06:52:15;100890.78;;;3.29;75.84
19005;BME280;9635;52.078;8.648;2023-01-31T06:57:17;100906.25;;;3.19;75.99
19005;BME280;9635;52.078;8.648;2023-01-31T07:02:22;100911.84;;;3.13;76.13
19005;BME280;9635;52.078;8.648;2023-01-31T07:07:24;100911.63;;;3.18;76.40
19005;BME280;9635;52.078;8.648;2023-01-31T07:12:27;100894.13;;;3.34;75.80
19005;BME280;9635;52.078;8.648;2023-01-31T07:17:32;100898.03;;;3.25;76.22
19005;BME280;9635;52.078;8.648;2023-01-31T07:22:34;100889.41;;;2.78;77.54
19005;BME280;9635;52.078;8.648;2023-01-31T07:27:37;100869.28;;;3.15;75.96
19005;BME280;9635;52.078;8.648;2023-01-31T07:32:41;100866.31;;;3.22;75.40
19005;BME280;9635;52.078;8.648;2023-01-31T07:37:44;100866.78;;;3.32;75.07
19005;BME280;9635;52.078;8.648;2023-01-31T07:42:47;100869.50;;;3.10;75.62
19005;BME280;9635;52.078;8.648;2023-01-31T07:47:52;100856.34;;;3.27;75.77
19005;BME280;9635;52.078;8.648;2023-01-31T07:52:56;100850.47;;;2.99;77.31
19005;BME280;9635;52.078;8.648;2023-01-31T07:57:59;100843.94;;;3.08;76.81
19005;BME280;9635;52.078;8.648;2023-01-31T08:03:03;100820.81;;;2.89;76.99
19005;BME280;9635;52.078;8.648;2023-01-31T08:08:24;100829.03;;;2.83;78.21
19005;BME280;9635;52.078;8.648;2023-01-31T08:13:27;100834.72;;;3.16;77.16
19005;BME280;9635;52.078;8.648;2023-01-31T08:18:31;100835.25;;;3.24;76.87
19005;BME280;9635;52.078;8.648;2023-01-31T08:23:34;100825.72;;;2.78;77.95
19005;BME280;9635;52.078;8.648;2023-01-31T08:28:39;100810.94;;;3.13;77.29
19005;BME280;9635;52.078;8.648;2023-01-31T08:33:43;100780.91;;;3.52;76.18
19005;BME280;9635;52.078;8.648;2023-01-31T08:38:46;100783.47;;;3.35;76.30
19005;BME280;9635;52.078;8.648;2023-01-31T08:43:50;100778.59;;;3.44;75.47
19005;BME280;9635;52.078;8.648;2023-01-31T08:49:00;100772.22;;;3.28;76.33
19005;BME280;9635;52.078;8.648;2023-01-31T08:54:03;100769.66;;;3.06;78.93
19005;BME280;9635;52.078;8.648;2023-01-31T08:59:06;100786.41;;;2.66;83.05
19005;BME280;9635;52.078;8.648;2023-01-31T09:04:10;100797.22;;;2.39;84.69
19005;BME280;9635;52.078;8.648;2023-01-31T09:09:13;100757.84;;;2.72;84.21
19005;BME280;9635;52.078;8.648;2023-01-31T09:14:15;100758.63;;;2.54;84.39
19005;BME280;9635;52.078;8.648;2023-01-31T09:19:20;100741.59;;;2.59;84.82
19005;BME280;9635;52.078;8.648;2023-01-31T09:24:24;100780.34;;;2.20;86.38
19005;BME280;9635;52.078;8.648;2023-01-31T09:29:26;100732.78;;;2.59;86.76
19005;BME280;9635;52.078;8.648;2023-01-31T09:34:31;100743.31;;;2.38;87.74
19005;BME280;9635;52.078;8.648;2023-01-31T09:39:34;100716.06;;;2.35;88.10
19005;BME280;9635;52.078;8.648;2023-01-31T09:44:39;100715.47;;;2.28;89.43
19005;BME280;9635;52.078;8.648;2023-01-31T09:49:47;100717.91;;;2.55;88.63
19005;BME280;9635;52.078;8.648;2023-01-31T09:54:50;100733.34;;;2.23;89.61
19005;BME280;9635;52.078;8.648;2023-01-31T10:00:00;100727.38;;;2.38;89.92
19005;BME280;9635;52.078;8.648;2023-01-31T10:05:18;100737.28;;;2.35;88.68
19005;BME280;9635;52.078;8.648;2023-01-31T10:10:32;100735.38;;;2.81;87.81
19005;BME280;9635;52.078;8.648;2023-01-31T10:15:41;100735.88;;;2.69;87.40
19005;BME280;9635;52.078;8.648;2023-01-31T10:20:49;100710.56;;;2.82;87.18
19005;BME280;9635;52.078;8.648;2023-01-31T10:25:56;100689.03;;;2.69;86.21
19005;BME280;9635;52.078;8.648;2023-01-31T10:31:04;100703.34;;;2.86;86.67
19005;BME280;9635;52.078;8.648;2023-01-31T10:36:16;100696.00;;;2.50;87.16
19005;BME280;9635;52.078;8.648;2023-01-31T10:41:26;100697.66;;;2.74;86.19
19005;BME280;9635;52.078;8.648;2023-01-31T10:46:33;100684.69;;;2.87;85.83
19005;BME280;9635;52.078;8.648;2023-01-31T10:51:49;100691.56;;;3.12;84.70
19005;BME280;9635;52.078;8.648;2023-01-31T10:56:57;100660.81;;;2.87;85.05
19005;BME280;9635;52.078;8.648;2023-01-31T11:02:01;100654.06;;;2.99;84.96
19005;BME280;9635;52.078;8.648;2023-01-31T11:07:06;100649.53;;;3.21;84.64
19005;BME280;9635;52.078;8.648;2023-01-31T11:12:10;100631.06;;;2.99;84.84
19005;BME280;9635;52.078;8.648;2023-01-31T11:17:16;100616.16;;;2.76;85.79
19005;BME280;9635;52.078;8.648;2023-01-31T11:22:25;100593.81;;;3.01;86.47
19005;BME280;9635;52.078;8.648;2023-01-31T11:27:33;100587.72;;;2.99;86.32
19005;BME280;9635;52.078;8.648;2023-01-31T11:32:41;100588.31;;;3.05;86.34
19005;BME280;9635;52.078;8.648;2023-01-31T11:37:51;100611.03;;;2.92;86.77
19005;BME280;9635;52.078;8.648;2023-01-31T11:42:56;100592.66;;;2.88;87.22
19005;BME280;9635;52.078;8.648;2023-01-31T11:48:05;100574.22;;;2.84;87.39
19005;BME280;9635;52.078;8.648;2023-01-31T11:53:16;100581.78;;;2.94;87.03
19005;BME280;9635;52.078;8.648;2023-01-31T11:58:22;100576.75;;;2.88;86.91
19005;BME280;9635;52.078;8.648;2023-01-31T12:03:26;100589.72;;;2.75;87.09
19005;BME280;9635;52.078;8.648;2023-01-31T12:08:34;100564.50;;;3.04;86.59
19005;BME280;9635;52.078;8.648;2023-01-31T12:13:47;100560.66;;;3.28;85.13
19005;BME280;9635;52.078;8.648;2023-01-31T12:18:58;100541.22;;;3.28;85.11
19005;BME280;9635;52.078;8.648;2023-01-31T12:24:15;100518.16;;;3.11;86.38
19005;BME280;9635;52.078;8.648;2023-01-31T12:29:54;100512.13;;;3.08;86.37
19005;BME280;9635;52.078;8.648;2023-01-31T12:35:18;100502.53;;;3.05;86.89
19005;BME280;9635;52.078;8.648;2023-01-31T12:40:36;100515.13;;;3.19;86.42
19005;BME280;9635;52.078;8.648;2023-01-31T12:46:01;100522.13;;;3.02;88.49
19005;BME280;9635;52.078;8.648;2023-01-31T12:51:20;100522.47;;;2.95;90.57
19005;BME280;9635;52.078;8.648;2023-01-31T12:56:44;100525.91;;;3.16;91.00
19005;BME280;9635;52.078;8.648;2023-01-31T13:01:52;100527.41;;;2.83;92.40
19005;BME280;9635;52.078;8.648;2023-01-31T13:06:58;100533.63;;;3.01;93.11
19005;BME280;9635;52.078;8.648;2023-01-31T13:12:06;100538.59;;;3.09;92.61
19005;BME280;9635;52.078;8.648;2023-01-31T13:17:13;100528.84;;;3.10;93.30
19005;BME280;9635;52.078;8.648;2023-01-31T13:22:21;100537.44;;;2.96;94.09
19005;BME280;9635;52.078;8.648;2023-01-31T13:27:29;100510.38;;;3.25;93.75
19005;BME280;9635;52.078;8.648;2023-01-31T13:32:37;100526.59;;;3.19;93.16
19005;BME280;9635;52.078;8.648;2023-01-31T13:37:44;100525.69;;;3.01;94.41
19005;BME280;9635;52.078;8.648;2023-01-31T13:42:49;100518.13;;;3.30;94.60
19005;BME280;9635;52.078;8.648;2023-01-31T13:47:59;100528.09;;;3.25;94.17
19005;BME280;9635;52.078;8.648;2023-01-31T13:53:06;100506.38;;;3.17;95.97
19005;BME280;9635;52.078;8.648;2023-01-31T13:58:18;100506.50;;;3.33;93.72
19005;BME280;9635;52.078;8.648;2023-01-31T14:03:24;100502.34;;;3.27;95.03
19005;BME280;9635;52.078;8.648;2023-01-31T14:08:36;100491.94;;;3.22;95.53
19005;BME280;9635;52.078;8.648;2023-01-31T14:13:43;100495.72;;;3.36;94.03
19005;BME280;9635;52.078;8.648;2023-01-31T14:18:46;100485.22;;;3.52;93.92
19005;BME280;9635;52.078;8.648;2023-01-31T14:23:49;100464.28;;;3.63;93.92
19005;BME280;9635;52.078;8.648;2023-01-31T14:28:53;100475.84;;;3.79;93.17
19005;BME280;9635;52.078;8.648;2023-01-31T14:33:56;100475.44;;;3.52;93.99
19005;BME280;9635;52.078;8.648;2023-01-31T14:39:24;100481.69;;;3.68;92.91
19005;BME280;9635;52.078;8.648;2023-01-31T14:44:42;100469.44;;;3.66;93.12
19005;BME280;9635;52.078;8.648;2023-01-31T14:50:05;100484.56;;;3.99;91.59
19005;BME280;9635;52.078;8.648;2023-01-31T14:55:29;100488.94;;;4.00;92.80
19005;BME280;9635;52.078;8.648;2023-01-31T15:00:42;100485.13;;;3.88;92.52
19005;BME280;9635;52.078;8.648;2023-01-31T15:05:49;100495.34;;;4.13;91.74
19005;BME280;9635;52.078;8.648;2023-01-31T15:10:57;100505.75;;;4.00;90.83
19005;BME280;9635;52.078;8.648;2023-01-31T15:16:05;100494.50;;;4.12;90.78
19005;BME280;9635;52.078;8.648;2023-01-31T15:21:09;100503.72;;;4.23;89.64
19005;BME280;9635;52.078;8.648;2023-01-31T15:26:13;100501.34;;;4.16;90.16
19005;BME280;9635;52.078;8.648;2023-01-31T15:31:23;100507.13;;;4.58;88.60
19005;BME280;9635;52.078;8.648;2023-01-31T15:36:31;100485.63;;;4.29;89.59
19005;BME280;9635;52.078;8.648;2023-01-31T15:41:37;100485.38;;;4.34;90.39
19005;BME280;9635;52.078;8.648;2023-01-31T15:46:43;100461.00;;;4.26;90.81
19005;BME280;9635;52.078;8.648;2023-01-31T15:52:01;100435.09;;;4.29;90.08
19005;BME280;9635;52.078;8.648;2023-01-31T15:57:09;100486.50;;;4.46;88.63
19005;BME280;9635;52.078;8.648;2023-01-31T16:02:20;100501.28;;;4.51;89.12
19005;BME280;9635;52.078;8.648;2023-01-31T16:07:25;100491.03;;;4.44;89.37
19005;BME280;9635;52.078;8.648;2023-01-31T16:12:32;100497.66;;;4.36;90.93
19005;BME280;9635;52.078;8.648;2023-01-31T16:17:39;100509.19;;;4.53;90.01
19005;BME280;9635;52.078;8.648;2023-01-31T16:22:54;100487.88;;;4.37;90.02
19005;BME280;9635;52.078;8.648;2023-01-31T16:27:58;100500.03;;;4.25;92.53
19005;BME280;9635;52.078;8.648;2023-01-31T16:33:04;100500.38;;;4.35;91.85
19005;BME280;9635;52.078;8.648;2023-01-31T16:38:17;100504.44;;;4.42;92.52
19005;BME280;9635;52.078;8.648;2023-01-31T16:43:23;100503.50;;;4.43;91.20
19005;BME280;9635;52.078;8.648;2023-01-31T16:48:30;100496.97;;;4.49;91.09
19005;BME280;9635;52.078;8.648;2023-01-31T16:53:34;100526.28;;;4.31;90.12
19005;BME280;9635;52.078;8.648;2023-01-31T16:58:46;100529.13;;;4.44;90.24
19005;BME280;9635;52.078;8.648;2023-01-31T17:04:17;100532.84;;;4.75;89.05
19005;BME280;9635;52.078;8.648;2023-01-31T17:09:21;100544.13;;;4.62;90.06
19005;BME280;9635;52.078;8.648;2023-01-31T17:14:24;100544.94;;;4.80;88.27
19005;BME280;9635;52.078;8.648;2023-01-31T17:19:29;100528.28;;;4.44;87.31
19005;BME280;9635;52.078;8.648;2023-01-31T17:24:31;100529.28;;;4.58;85.31
19005;BME280;9635;52.078;8.648;2023-01-31T17:29:34;100539.44;;;4.68;85.44
19005;BME280;9635;52.078;8.648;2023-01-31T17:34:38;100540.09;;;4.55;86.63
19005;BME280;9635;52.078;8.648;2023-01-31T17:39:41;100535.47;;;4.59;87.25
19005;BME280;9635;52.078;8.648;2023-01-31T17:44:44;100541.22;;;5.00;85.64
19005;BME280;9635;52.078;8.648;2023-01-31T17:49:48;100533.69;;;4.75;87.06
19005;BME280;9635;52.078;8.648;2023-01-31T17:54:51;100533.25;;;4.67;85.61
19005;BME280;9635;52.078;8.648;2023-01-31T17:59:54;100540.47;;;4.81;83.60
19005;BME280;9635;52.078;8.648;2023-01-31T18:04:58;100546.97;;;4.59;80.96
19005;BME280;9635;52.078;8.648;2023-01-31T18:10:02;100540.88;;;4.73;78.23
19005;BME280;9635;52.078;8.648;2023-01-31T18:15:06;100548.44;;;4.65;77.38
19005;BME280;9635;52.078;8.648;2023-01-31T18:20:11;100550.44;;;4.77;78.26
19005;BME280;9635;52.078;8.648;2023-01-31T18:25:14;100543.31;;;4.45;79.11
19005;BME280;9635;52.078;8.648;2023-01-31T18:30:17;100561.81;;;5.13;77.22
19005;BME280;9635;52.078;8.648;2023-01-31T18:35:22;100547.91;;;4.25;80.99
19005;BME280;9635;52.078;8.648;2023-01-31T18:40:24;100547.75;;;4.44;78.87
19005;BME280;9635;52.078;8.648;2023-01-31T18:45:27;100543.88;;;4.34;78.77
19005;BME280;9635;52.078;8.648;2023-01-31T18:50:31;100547.00;;;4.75;77.60
19005;BME280;9635;52.078;8.648;2023-01-31T18:55:34;100548.09;;;4.38;78.87
19005;BME280;9635;52.078;8.648;2023-01-31T19:00:37;100553.56;;;4.35;78.68
19005;BME280;9635;52.078;8.648;2023-01-31T19:05:41;100545.22;;;4.08;78.40
19005;BME280;9635;52.078;8.648;2023-01-31T19:10:44;100551.91;;;4.50;77.27
19005;BME280;9635;52.078;8.648;2023-01-31T19:15:47;100540.63;;;4.11;77.93
19005;BME280;9635;52.078;8.648;2023-01-31T19:20:51;100560.88;;;4.65;76.10
19005;BME280;9635;52.078;8.648;2023-01-31T19:25:54;100554.44;;;4.35;76.53
19005;BME280;9635;52.078;8.648;2023-01-31T19:31:02;100571.69;;;4.44;76.10
19005;BME280;9635;52.078;8.648;2023-01-31T19:36:12;100552.16;;;4.28;75.20
19005;BME280;9635;52.078;8.648;2023-01-31T19:41:16;100565.47;;;4.10;75.72
19005;BME280;9635;52.078;8.648;2023-01-31T19:46:22;100577.16;;;4.25;75.32
19005;BME280;9635;52.078;8.648;2023-01-31T19:51:28;100585.66;;;4.14;75.94
19005;BME280;9635;52.078;8.648;2023-01-31T19:56:31;100584.47;;;4.37;75.20
19005;BME280;9635;52.078;8.648;2023-01-31T20:01:34;100605.38;;;4.10;74.50
19005;BME280;9635;52.078;8.648;2023-01-31T20:06:38;100619.34;;;3.79;76.06
19005;BME280;9635;52.078;8.648;2023-01-31T20:11:41;100612.88;;;4.20;75.04
19005;BME280;9635;52.078;8.648;2023-01-31T20:16:44;100618.88;;;4.06;74.77
19005;BME280;9635;52.078;8.648;2023-01-31T20:21:48;100625.53;;;3.97;74.59
19005;BME280;9635;52.078;8.648;2023-01-31T20:26:51;100627.09;;;4.01;74.32
19005;BME280;9635;52.078;8.648;2023-01-31T20:31:54;100618.91;;;3.69;75.02
19005;BME280;9635;52.078;8.648;2023-01-31T20:36:58;100615.88;;;3.77;74.39
19005;BME280;9635;52.078;8.648;2023-01-31T20:42:01;100611.69;;;3.90;74.21
19005;BME280;9635;52.078;8.648;2023-01-31T20:47:04;100600.94;;;3.75;74.03
19005;BME280;9635;52.078;8.648;2023-01-31T20:52:09;100597.00;;;4.01;73.36
19005;BME280;9635;52.078;8.648;2023-01-31T20:57:11;100610.75;;;3.91;73.86
19005;BME280;9635;52.078;8.648;2023-01-31T21:02:14;100599.88;;;3.79;74.09
19005;BME280;9635;52.078;8.648;2023-01-31T21:07:18;100604.41;;;3.94;73.53
19005;BME280;9635;52.078;8.648;2023-01-31T21:12:21;100598.66;;;3.67;74.38
19005;BME280;9635;52.078;8.648;2023-01-31T21:17:24;100618.31;;;3.82;74.07
19005;BME280;9635;52.078;8.648;2023-01-31T21:22:42;100609.75;;;3.58;74.67
19005;BME280;9635;52.078;8.648;2023-01-31T21:27:47;100613.59;;;3.69;74.49
19005;BME280;9635;52.078;8.648;2023-01-31T21:32:50;100611.81;;;3.51;75.46
19005;BME280;9635;52.078;8.648;2023-01-31T21:37:54;100606.81;;;3.81;74.60
19005;BME280;9635;52.078;8.648;2023-01-31T21:42:57;100615.84;;;3.60;74.42
19005;BME280;9635;52.078;8.648;2023-01-31T21:48:00;100612.47;;;3.56;74.72
19005;BME280;9635;52.078;8.648;2023-01-31T21:53:21;100607.94;;;3.58;74.76
19005;BME280;9635;52.078;8.648;2023-01-31T21:58:24;100610.56;;;3.41;74.94
19005;BME280;9635;52.078;8.648;2023-01-31T22:03:27;100620.81;;;3.30;74.53
19005;BME280;9635;52.078;8.648;2023-01-31T22:08:31;100598.34;;;3.37;74.90
19005;BME280;9635;52.078;8.648;2023-01-31T22:13:34;100614.13;;;3.40;75.17
19005;BME280;9635;52.078;8.648;2023-01-31T22:18:38;100604.28;;;3.42;74.80
19005;BME280;9635;52.078;8.648;2023-01-31T22:23:46;100612.34;;;3.40;74.15
19005;BME280;9635;52.078;8.648;2023-01-31T22:28:52;100596.16;;;3.64;73.41
19005;BME280;9635;52.078;8.648;2023-01-31T22:33:55;100592.28;;;3.35;74.78
19005;BME280;9635;52.078;8.648;2023-01-31T22:39:01;100589.03;;;3.28;74.69
19005;BME280;9635;52.078;8.648;2023-01-31T22:44:04;100586.06;;;3.34;73.59
19005;BME280;9635;52.078;8.648;2023-01-31T22:49:07;100588.88;;;3.12;74.58
19005;BME280;9635;52.078;8.648;2023-01-31T22:54:11;100584.81;;;3.05;75.11
19005;BME280;9635;52.078;8.648;2023-01-31T22:59:15;100591.97;;;3.22;74.29
19005;BME280;9635;52.078;8.648;2023-01-31T23:04:18;100578.75;;;3.01;75.05
19005;BME280;9635;52.078;8.648;2023-01-31T23:09:22;100575.09;;;3.04;74.36
19005;BME280;9635;52.078;8.648;2023-01-31T23:14:25;100571.69;;;3.02;75.09
19005;BME280;9635;52.078;8.648;2023-01-31T23:19:28;100587.06;;;2.75;75.23
19005;BME280;9635;52.078;8.648;2023-01-31T23:24:33;100585.13;;;2.78;75.36
19005;BME280;9635;52.078;8.648;2023-01-31T23:29:36;100582.34;;;3.00;75.19
19005;BME280;9635;52.078;8.648;2023-01-31T23:34:39;100568.63;;;3.28;74.50
19005;BME280;9635;52.078;8.648;2023-01-31T23:39:43;100568.78;;;2.88;75.88
19005;BME280;9635;52.078;8.648;2023-01-31T23:44:47;100568.94;;;3.22;74.69
19005;BME280;9635;52.078;8.648;2023-01-31T23:49:50;100572.31;;;2.88;75.59
19005;BME280;9635;52.078;8.648;2023-01-31T23:54:54;100559.78;;;3.47;73.12
19005;BME280;9635;52.078;8.648;2023-01-31T23:59:57;100544.13;;;3.04;75.26
